sensor_id;sensor_type;location;lat;lon;timestamp;pressure;altitude;pressure_sealevel;temperature;humidity
55187;BME280;55457;52.002;5.464;2023-04-02T00:08:57;100974.94;;;20.39;46.59
55187;BME280;55457;52.002;5.464;2023-04-02T00:11:37;100981.16;;;20.40;46.47
55187;BME280;55457;52.002;5.464;2023-04-02T00:14:04;100982.22;;;20.39;46.65
55187;BME280;55457;52.002;5.464;2023-04-02T00:16:30;100982.22;;;20.39;46.59
55187;BME280;55457;52.002;5.464;2023-04-02T00:18:57;100992.25;;;20.38;46.65
55187;BME280;55457;52.002;5.464;2023-04-02T00:21:28;100990.34;;;20.39;46.62
55187;BME280;55457;52.002;5.464;2023-04-02T00:23:55;100994.94;;;20.38;46.39
55187;BME280;55457;52.002;5.464;2023-04-02T00:26:38;100999.28;;;20.39;46.42
55187;BME280;55457;52.002;5.464;2023-04-02T00:29:05;100997.66;;;20.38;46.32
55187;BME280;55457;52.002;5.464;2023-04-02T00:31:31;101007.41;;;20.39;46.47
55187;BME280;55457;52.002;5.464;2023-04-02T00:34:01;101008.47;;;20.38;46.52
55187;BME280;55457;52.002;5.464;2023-04-02T00:36:29;101012.00;;;20.39;46.44
55187;BME280;55457;52.002;5.464;2023-04-02T00:38:56;101016.59;;;20.38;46.45
55187;BME280;55457;52.002;5.464;2023-04-02T00:41:23;101027.44;;;20.38;46.37
55187;BME280;55457;52.002;5.464;2023-04-02T00:43:51;101031.22;;;20.37;46.25
55187;BME280;55457;52.002;5.464;2023-04-02T00:46:18;101039.31;;;20.37;46.27
55187;BME280;55457;52.002;5.464;2023-04-02T00:48:49;101038.25;;;20.38;46.23
55187;BME280;55457;52.002;5.464;2023-04-02T00:51:18;101047.44;;;20.37;46.38
55187;BME280;55457;52.002;5.464;2023-04-02T00:53:46;101045.81;;;20.36;46.19
55187;BME280;55457;52.002;5.464;2023-04-02T00:56:14;101051.22;;;20.36;46.30
55187;BME280;55457;52.002;5.464;2023-04-02T00:58:41;101047.66;;;20.36;45.99
55187;BME280;55457;52.002;5.464;2023-04-02T01:01:17;101062.06;;;20.36;46.14
55187;BME280;55457;52.002;5.464;2023-04-02T01:03:51;101061.19;;;20.36;46.27
55187;BME280;55457;52.002;5.464;2023-04-02T01:06:17;101073.69;;;20.37;46.09
55187;BME280;55457;52.002;5.464;2023-04-02T01:24:02;101096.63;;;20.34;46.00
55187;BME280;55457;52.002;5.464;2023-04-02T01:26:45;101092.84;;;20.35;45.91
55187;BME280;55457;52.002;5.464;2023-04-02T01:29:13;101102.03;;;20.34;45.96
55187;BME280;55457;52.002;5.464;2023-04-02T01:31:39;101108.28;;;20.34;45.95
55187;BME280;55457;52.002;5.464;2023-04-02T01:34:10;101097.69;;;20.33;45.83
55187;BME280;55457;52.002;5.464;2023-04-02T01:41:42;101123.69;;;20.34;45.89
55187;BME280;55457;52.002;5.464;2023-04-02T01:44:17;101125.59;;;20.33;45.86
55187;BME280;55457;52.002;5.464;2023-04-02T01:46:47;101129.34;;;20.32;45.76
55187;BME280;55457;52.002;5.464;2023-04-02T01:49:13;101125.81;;;20.32;45.72
55187;BME280;55457;52.002;5.464;2023-04-02T01:51:43;101138.31;;;20.33;45.83
55187;BME280;55457;52.002;5.464;2023-04-02T01:54:09;101145.34;;;20.34;45.86
55187;BME280;55457;52.002;5.464;2023-04-02T01:56:36;101143.72;;;20.33;45.63
55187;BME280;55457;52.002;5.464;2023-04-02T01:59:02;101151.84;;;20.33;45.82
55187;BME280;55457;52.002;5.464;2023-04-02T02:02:15;101159.13;;;20.32;45.73
55187;BME280;55457;52.002;5.464;2023-04-02T02:04:15;101165.38;;;20.33;45.79
55187;BME280;55457;52.002;5.464;2023-04-02T02:06:42;101162.91;;;20.31;45.72
55187;BME280;55457;52.002;5.464;2023-04-02T02:09:11;101174.56;;;20.32;45.69
55187;BME280;55457;52.002;5.464;2023-04-02T02:11:37;101182.66;;;20.32;45.68
55187;BME280;55457;52.002;5.464;2023-04-02T02:14:08;101181.59;;;20.33;45.64
55187;BME280;55457;52.002;5.464;2023-04-02T02:16:36;101179.97;;;20.32;45.65
55187;BME280;55457;52.002;5.464;2023-04-02T02:19:06;101185.38;;;20.32;45.46
55187;BME280;55457;52.002;5.464;2023-04-02T02:21:37;101190.78;;;20.32;45.62
55187;BME280;55457;52.002;5.464;2023-04-02T02:24:03;101195.38;;;20.31;45.39
55187;BME280;55457;52.002;5.464;2023-04-02T02:26:31;101205.97;;;20.33;45.40
55187;BME280;55457;52.002;5.464;2023-04-02T02:28:59;101202.69;;;20.31;45.59
55187;BME280;55457;52.002;5.464;2023-04-02T02:31:28;101205.38;;;20.31;45.56
55187;BME280;55457;52.002;5.464;2023-04-02T02:33:56;101209.94;;;20.30;45.63
55187;BME280;55457;52.002;5.464;2023-04-02T02:36:34;101221.63;;;20.31;45.59
55187;BME280;55457;52.002;5.464;2023-04-02T02:39:15;101222.66;;;20.30;45.31
55187;BME280;55457;52.002;5.464;2023-04-02T02:42:03;101225.38;;;20.30;45.36
55187;BME280;55457;52.002;5.464;2023-04-02T02:44:33;101235.16;;;20.31;45.26
55187;BME280;55457;52.002;5.464;2023-04-02T02:47:01;101238.91;;;20.30;45.41
55187;BME280;55457;52.002;5.464;2023-04-02T02:49:29;101237.25;;;20.29;45.46
55187;BME280;55457;52.002;5.464;2023-04-02T02:54:33;101248.09;;;20.29;45.27
55187;BME280;55457;52.002;5.464;2023-04-02T02:57:00;101262.69;;;20.28;45.41
55187;BME280;55457;52.002;5.464;2023-04-02T02:59:26;101255.38;;;20.28;45.36
55187;BME280;55457;52.002;5.464;2023-04-02T03:01:53;101266.22;;;20.28;45.20
55187;BME280;55457;52.002;5.464;2023-04-02T03:04:20;101277.84;;;20.29;45.27
55187;BME280;55457;52.002;5.464;2023-04-02T03:06:47;101277.84;;;20.29;45.39
55187;BME280;55457;52.002;5.464;2023-04-02T03:09:58;101283.28;;;20.29;45.31
55187;BME280;55457;52.002;5.464;2023-04-02T03:12:06;101290.56;;;20.28;45.37
55187;BME280;55457;52.002;5.464;2023-04-02T03:14:57;101294.09;;;20.29;45.26
55187;BME280;55457;52.002;5.464;2023-04-02T03:22:44;101314.09;;;20.28;45.29
55187;BME280;55457;52.002;5.464;2023-04-02T03:25:24;101323.88;;;20.29;45.19
55187;BME280;55457;52.002;5.464;2023-04-02T03:27:53;101319.53;;;20.28;44.97
55187;BME280;55457;52.002;5.464;2023-04-02T03:30:28;101334.94;;;20.27;45.22
55187;BME280;55457;52.002;5.464;2023-04-02T03:32:56;101340.34;;;20.27;45.11
55187;BME280;55457;52.002;5.464;2023-04-02T03:35:30;101341.41;;;20.26;45.16
55187;BME280;55457;52.002;5.464;2023-04-02T03:37:59;101355.78;;;20.27;45.05
55187;BME280;55457;52.002;5.464;2023-04-02T03:40:42;101351.41;;;20.26;44.90
55187;BME280;55457;52.002;5.464;2023-04-02T03:43:13;101362.25;;;20.26;44.96
55187;BME280;55457;52.002;5.464;2023-04-02T03:45:43;101364.09;;;20.25;45.04
55187;BME280;55457;52.002;5.464;2023-04-02T03:48:14;101381.19;;;20.26;45.12
55187;BME280;55457;52.002;5.464;2023-04-02T03:50:43;101384.94;;;20.25;45.09
55187;BME280;55457;52.002;5.464;2023-04-02T03:53:09;101386.59;;;20.26;44.99
55187;BME280;55457;52.002;5.464;2023-04-02T03:55:36;101389.31;;;20.26;45.04
55187;BME280;55457;52.002;5.464;2023-04-02T04:00:51;101396.81;;;20.24;45.09
55187;BME280;55457;52.002;5.464;2023-04-02T04:03:19;101406.56;;;20.25;45.00
55187;BME280;55457;52.002;5.464;2023-04-02T04:05:50;101405.75;;;20.24;44.96
55187;BME280;55457;52.002;5.464;2023-04-02T04:08:18;101405.75;;;20.24;45.03
55187;BME280;55457;52.002;5.464;2023-04-02T04:10:45;101408.69;;;20.23;45.03
55187;BME280;55457;52.002;5.464;2023-04-02T04:13:14;101422.00;;;20.24;44.88
55187;BME280;55457;52.002;5.464;2023-04-02T04:15:46;101426.59;;;20.24;44.77
55187;BME280;55457;52.002;5.464;2023-04-02T04:20:48;101436.59;;;20.23;44.95
55187;BME280;55457;52.002;5.464;2023-04-02T04:23:16;101443.88;;;20.23;44.74
55187;BME280;55457;52.002;5.464;2023-04-02T04:25:44;101452.81;;;20.23;44.67
55187;BME280;55457;52.002;5.464;2023-04-02T04:28:15;101453.66;;;20.24;44.86
55187;BME280;55457;52.002;5.464;2023-04-02T04:33:16;101466.34;;;20.23;44.74
55187;BME280;55457;52.002;5.464;2023-04-02T04:35:59;101470.13;;;20.22;44.86
55187;BME280;55457;52.002;5.464;2023-04-02T04:38:33;101475.53;;;20.22;44.66
55187;BME280;55457;52.002;5.464;2023-04-02T04:41:09;101482.00;;;20.21;44.81
55187;BME280;55457;52.002;5.464;2023-04-02T04:46:07;101489.31;;;20.21;44.66
55187;BME280;55457;52.002;5.464;2023-04-02T04:51:40;101493.66;;;20.22;44.67
55187;BME280;55457;52.002;5.464;2023-04-02T04:54:11;101503.66;;;20.21;44.60
55187;BME280;55457;52.002;5.464;2023-04-02T04:56:37;101502.84;;;20.21;44.56
55187;BME280;55457;52.002;5.464;2023-04-02T04:59:14;101512.84;;;20.20;44.60
55187;BME280;55457;52.002;5.464;2023-04-02T05:01:51;101513.66;;;20.21;44.39
55187;BME280;55457;52.002;5.464;2023-04-02T05:06:50;101524.50;;;20.21;44.54
55187;BME280;55457;52.002;5.464;2023-04-02T05:09:22;101531.78;;;20.20;44.60
55187;BME280;55457;52.002;5.464;2023-04-02T05:11:56;101533.63;;;20.20;44.47
55187;BME280;55457;52.002;5.464;2023-04-02T05:14:32;101549.88;;;20.20;44.50
55187;BME280;55457;52.002;5.464;2023-04-02T05:17:03;101555.28;;;20.20;44.42
55187;BME280;55457;52.002;5.464;2023-04-02T05:22:35;101559.06;;;20.19;44.22
55187;BME280;55457;52.002;5.464;2023-04-02T05:32:54;101586.94;;;20.19;44.16
55187;BME280;55457;52.002;5.464;2023-04-02T05:35:23;101590.72;;;20.18;44.36
55187;BME280;55457;52.002;5.464;2023-04-02T05:37:51;101602.34;;;20.19;44.22
55187;BME280;55457;52.002;5.464;2023-04-02T05:40:19;101602.34;;;20.19;44.19
55187;BME280;55457;52.002;5.464;2023-04-02T05:42:47;101605.06;;;20.19;44.15
55187;BME280;55457;52.002;5.464;2023-04-02T05:47:41;101616.13;;;20.17;44.27
55187;BME280;55457;52.002;5.464;2023-04-02T05:53:20;101630.47;;;20.18;43.93
55187;BME280;55457;52.002;5.464;2023-04-02T05:57:47;101644.00;;;20.18;44.03
55187;BME280;55457;52.002;5.464;2023-04-02T06:00:14;101654.00;;;20.17;44.02
55187;BME280;55457;52.002;5.464;2023-04-02T06:02:42;101656.72;;;20.17;43.89
55187;BME280;55457;52.002;5.464;2023-04-02T06:05:13;101660.25;;;20.18;43.87
55187;BME280;55457;52.002;5.464;2023-04-02T06:07:47;101662.94;;;20.18;43.82
55187;BME280;55457;52.002;5.464;2023-04-02T06:10:21;101682.97;;;20.17;43.76
55187;BME280;55457;52.002;5.464;2023-04-02T06:12:52;101688.97;;;20.19;43.78
55187;BME280;55457;52.002;5.464;2023-04-02T06:15:19;101688.97;;;20.19;43.81
55187;BME280;55457;52.002;5.464;2023-04-02T06:17:45;101702.72;;;20.17;43.78
55187;BME280;55457;52.002;5.464;2023-04-02T06:20:12;101706.25;;;20.18;43.74
55187;BME280;55457;52.002;5.464;2023-04-02T06:22:39;101703.56;;;20.18;43.74
55187;BME280;55457;52.002;5.464;2023-04-02T06:25:14;101718.13;;;20.17;43.79
55187;BME280;55457;52.002;5.464;2023-04-02T06:27:42;101723.56;;;20.17;43.81
55187;BME280;55457;52.002;5.464;2023-04-02T06:30:13;101728.13;;;20.16;43.83
55187;BME280;55457;52.002;5.464;2023-04-02T06:32:40;101733.31;;;20.18;43.60
55187;BME280;55457;52.002;5.464;2023-04-02T06:35:07;101737.09;;;20.17;43.73
55187;BME280;55457;52.002;5.464;2023-04-02T06:37:37;101741.44;;;20.18;43.68
55187;BME280;55457;52.002;5.464;2023-04-02T06:40:04;101745.19;;;20.17;43.72
55187;BME280;55457;52.002;5.464;2023-04-02T06:42:38;101750.63;;;20.17;43.65
55187;BME280;55457;52.002;5.464;2023-04-02T06:45:04;101756.03;;;20.17;43.34
55187;BME280;55457;52.002;5.464;2023-04-02T06:47:36;101765.81;;;20.18;43.45
55187;BME280;55457;52.002;5.464;2023-04-02T06:50:18;101766.84;;;20.17;43.48
55187;BME280;55457;52.002;5.464;2023-04-02T06:52:47;101783.09;;;20.17;43.47
55187;BME280;55457;52.002;5.464;2023-04-02T06:57:58;101783.09;;;20.17;43.54
55187;BME280;55457;52.002;5.464;2023-04-02T07:00:30;101789.34;;;20.17;43.58
55187;BME280;55457;52.002;5.464;2023-04-02T07:02:58;101791.22;;;20.17;43.37
55187;BME280;55457;52.002;5.464;2023-04-02T07:05:25;101791.22;;;20.17;43.42
55187;BME280;55457;52.002;5.464;2023-04-02T07:07:51;101799.34;;;20.17;43.44
55187;BME280;55457;52.002;5.464;2023-04-02T07:10:16;101806.63;;;20.16;43.37
55187;BME280;55457;52.002;5.464;2023-04-02T07:12:43;101813.91;;;20.16;43.35
55187;BME280;55457;52.002;5.464;2023-04-02T07:15:10;101826.41;;;20.17;43.44
55187;BME280;55457;52.002;5.464;2023-04-02T07:17:38;101833.69;;;20.16;43.27
55187;BME280;55457;52.002;5.464;2023-04-02T07:20:04;101837.22;;;20.17;43.37
55187;BME280;55457;52.002;5.464;2023-04-02T07:22:30;101844.50;;;20.16;43.34
55187;BME280;55457;52.002;5.464;2023-04-02T07:24:55;101842.63;;;20.17;43.09
55187;BME280;55457;52.002;5.464;2023-04-02T07:27:20;101841.81;;;20.16;43.12
55187;BME280;55457;52.002;5.464;2023-04-02T07:29:45;101856.16;;;20.17;43.04
55187;BME280;55457;52.002;5.464;2023-04-02T07:32:11;101852.63;;;20.16;43.13
55187;BME280;55457;52.002;5.464;2023-04-02T07:34:37;101858.03;;;20.16;43.09
55187;BME280;55457;52.002;5.464;2023-04-02T07:37:02;101862.41;;;20.17;43.11
55187;BME280;55457;52.002;5.464;2023-04-02T07:39:28;101857.81;;;20.18;43.12
55187;BME280;55457;52.002;5.464;2023-04-02T07:41:54;101867.81;;;20.17;43.18
55187;BME280;55457;52.002;5.464;2023-04-02T07:44:20;101888.19;;;20.20;43.31
55187;BME280;55457;52.002;5.464;2023-04-02T07:46:45;101886.53;;;20.19;43.40
55187;BME280;55457;52.002;5.464;2023-04-02T07:49:10;101888.19;;;20.20;43.78
55187;BME280;55457;52.002;5.464;2023-04-02T07:51:35;101889.88;;;20.21;43.99
55187;BME280;55457;52.002;5.464;2023-04-02T07:54:01;101899.88;;;20.20;44.00
55187;BME280;55457;52.002;5.464;2023-04-02T07:56:27;101898.81;;;20.21;44.21
55187;BME280;55457;52.002;5.464;2023-04-02T07:58:52;101899.66;;;20.22;44.17
55187;BME280;55457;52.002;5.464;2023-04-02T08:01:22;101899.66;;;20.22;44.45
55187;BME280;55457;52.002;5.464;2023-04-02T08:03:48;101905.91;;;20.22;44.49
55187;BME280;55457;52.002;5.464;2023-04-02T08:06:14;101906.94;;;20.21;44.75
55187;BME280;55457;52.002;5.464;2023-04-02T08:08:40;101907.78;;;20.22;44.77
55187;BME280;55457;52.002;5.464;2023-04-02T08:11:05;101921.31;;;20.22;44.76
55187;BME280;55457;52.002;5.464;2023-04-02T08:13:30;101927.53;;;20.22;44.74
55187;BME280;55457;52.002;5.464;2023-04-02T08:15:59;101923.78;;;20.23;45.03
55187;BME280;55457;52.002;5.464;2023-04-02T08:18:25;101925.25;;;20.26;46.07
55187;BME280;55457;52.002;5.464;2023-04-02T08:20:51;101935.84;;;20.27;46.25
55187;BME280;55457;52.002;5.464;2023-04-02T08:23:17;101941.25;;;20.27;46.19
55187;BME280;55457;52.002;5.464;2023-04-02T08:25:43;101949.16;;;20.29;46.23
55187;BME280;55457;52.002;5.464;2023-04-02T08:28:08;101958.94;;;20.30;47.23
55187;BME280;55457;52.002;5.464;2023-04-02T08:30:33;101960.00;;;20.29;46.81
55187;BME280;55457;52.002;5.464;2023-04-02T08:32:59;101953.97;;;20.27;46.41
55187;BME280;55457;52.002;5.464;2023-04-02T08:35:24;101958.75;;;20.25;46.42
55187;BME280;55457;52.002;5.464;2023-04-02T08:37:50;101970.63;;;20.24;46.62
55187;BME280;55457;52.002;5.464;2023-04-02T08:40:19;101977.69;;;20.25;46.73
55187;BME280;55457;52.002;5.464;2023-04-02T08:43:29;101978.53;;;20.25;46.92
55187;BME280;55457;52.002;5.464;2023-04-02T08:48:10;101992.91;;;20.26;47.55
55187;BME280;55457;52.002;5.464;2023-04-02T08:50:37;101989.16;;;20.27;47.92
55187;BME280;55457;52.002;5.464;2023-04-02T08:53:05;101994.56;;;20.27;48.05
55187;BME280;55457;52.002;5.464;2023-04-02T08:55:37;101998.94;;;20.28;47.85
55187;BME280;55457;52.002;5.464;2023-04-02T09:00:52;102009.78;;;20.28;47.98
55187;BME280;55457;52.002;5.464;2023-04-02T09:05:47;102019.13;;;20.32;47.86
55187;BME280;55457;52.002;5.464;2023-04-02T09:08:21;102020.19;;;20.31;47.91
55187;BME280;55457;52.002;5.464;2023-04-02T09:13:33;102027.25;;;20.32;47.90
55187;BME280;55457;52.002;5.464;2023-04-02T09:16:11;102032.66;;;20.32;46.79
55187;BME280;55457;52.002;5.464;2023-04-02T09:18:37;102048.28;;;20.30;46.07
55187;BME280;55457;52.002;5.464;2023-04-02T09:21:12;102053.69;;;20.30;46.61
55187;BME280;55457;52.002;5.464;2023-04-02T09:23:42;102064.50;;;20.30;46.73
55187;BME280;55457;52.002;5.464;2023-04-02T09:28:49;102077.03;;;20.31;46.93
55187;BME280;55457;52.002;5.464;2023-04-02T09:31:18;102085.16;;;20.31;47.05
55187;BME280;55457;52.002;5.464;2023-04-02T09:33:45;102083.28;;;20.31;46.62
55187;BME280;55457;52.002;5.464;2023-04-02T09:36:44;102087.00;;;20.30;46.47
55187;BME280;55457;52.002;5.464;2023-04-02T09:39:14;102098.69;;;20.31;46.71
55187;BME280;55457;52.002;5.464;2023-04-02T09:41:41;102088.47;;;20.33;46.69
55187;BME280;55457;52.002;5.464;2023-04-02T09:44:10;102100.13;;;20.33;46.61
55187;BME280;55457;52.002;5.464;2023-04-02T09:46:36;102094.50;;;20.35;46.69
55187;BME280;55457;52.002;5.464;2023-04-02T09:49:01;102095.53;;;20.34;46.77
55187;BME280;55457;52.002;5.464;2023-04-02T09:51:30;102107.00;;;20.36;46.67
55187;BME280;55457;52.002;5.464;2023-04-02T09:56:26;102114.91;;;20.38;46.54
55187;BME280;55457;52.002;5.464;2023-04-02T10:01:37;102113.44;;;20.42;46.42
55187;BME280;55457;52.002;5.464;2023-04-02T10:04:05;102120.28;;;20.44;46.36
55187;BME280;55457;52.002;5.464;2023-04-02T10:06:31;102113.63;;;20.53;46.42
55187;BME280;55457;52.002;5.464;2023-04-02T10:08:57;102127.78;;;20.62;46.15
55187;BME280;55457;52.002;5.464;2023-04-02T10:11:27;102123.38;;;20.61;44.51
55187;BME280;55457;52.002;5.464;2023-04-02T10:13:55;102129.63;;;20.62;43.14
55187;BME280;55457;52.002;5.464;2023-04-02T10:18:57;102117.25;;;20.85;43.71
55187;BME280;55457;52.002;5.464;2023-04-02T10:21:27;102126.34;;;21.04;43.44
55187;BME280;55457;52.002;5.464;2023-04-02T10:23:53;102126.25;;;21.18;43.20
55187;BME280;55457;52.002;5.464;2023-04-02T10:26:32;102129.31;;;21.28;42.96
55187;BME280;55457;52.002;5.464;2023-04-02T10:34:11;102138.47;;;21.65;42.57
55187;BME280;55457;52.002;5.464;2023-04-02T10:39:21;102140.91;;;21.73;42.28
55187;BME280;55457;52.002;5.464;2023-04-02T10:44:19;102146.28;;;21.80;43.06
55187;BME280;55457;52.002;5.464;2023-04-02T10:49:35;102145.78;;;21.65;41.01
55187;BME280;55457;52.002;5.464;2023-04-02T10:52:20;102143.59;;;21.48;37.21
55187;BME280;55457;52.002;5.464;2023-04-02T10:54:49;102139.75;;;21.31;35.16
55187;BME280;55457;52.002;5.464;2023-04-02T10:59:52;102150.91;;;21.09;33.81
55187;BME280;55457;52.002;5.464;2023-04-02T11:02:25;102148.66;;;21.00;33.35
55187;BME280;55457;52.002;5.464;2023-04-02T11:04:52;102149.94;;;20.91;33.48
55187;BME280;55457;52.002;5.464;2023-04-02T11:07:19;102152.06;;;20.82;32.79
55187;BME280;55457;52.002;5.464;2023-04-02T11:09:48;102157.28;;;20.77;32.74
55187;BME280;55457;52.002;5.464;2023-04-02T11:12:26;102161.91;;;20.70;32.36
55187;BME280;55457;52.002;5.464;2023-04-02T11:14:53;102167.38;;;20.63;32.59
55187;BME280;55457;52.002;5.464;2023-04-02T11:17:19;102161.13;;;20.56;32.77
55187;BME280;55457;52.002;5.464;2023-04-02T11:19:45;102177.38;;;20.49;32.69
55187;BME280;55457;52.002;5.464;2023-04-02T11:24:43;102180.50;;;20.40;32.54
55187;BME280;55457;52.002;5.464;2023-04-02T11:29:51;102191.97;;;20.28;32.33
55187;BME280;55457;52.002;5.464;2023-04-02T11:42:44;102200.94;;;20.16;35.24
55187;BME280;55457;52.002;5.464;2023-04-02T11:48:25;102204.47;;;20.23;37.32
55187;BME280;55457;52.002;5.464;2023-04-02T11:50:36;102209.69;;;20.24;38.02
55187;BME280;55457;52.002;5.464;2023-04-02T11:53:17;102212.81;;;20.28;37.99
55187;BME280;55457;52.002;5.464;2023-04-02T11:55:45;102207.81;;;20.31;38.05
55187;BME280;55457;52.002;5.464;2023-04-02T12:03:19;102212.81;;;20.41;38.42
55187;BME280;55457;52.002;5.464;2023-04-02T12:08:43;102226.94;;;20.43;38.60
55187;BME280;55457;52.002;5.464;2023-04-02T12:11:11;102232.16;;;20.45;38.67
55187;BME280;55457;52.002;5.464;2023-04-02T12:16:08;102239.06;;;20.47;38.99
55187;BME280;55457;52.002;5.464;2023-04-02T12:18:34;102236.97;;;20.49;38.77
55187;BME280;55457;52.002;5.464;2023-04-02T12:20:59;102234.03;;;20.51;39.05
55187;BME280;55457;52.002;5.464;2023-04-02T12:23:26;102225.72;;;20.52;39.06
55187;BME280;55457;52.002;5.464;2023-04-02T12:25:57;102214.44;;;20.55;39.01
55187;BME280;55457;52.002;5.464;2023-04-02T12:28:23;102227.81;;;20.57;39.18
55187;BME280;55457;52.002;5.464;2023-04-02T12:30:49;102225.94;;;20.57;39.54
55187;BME280;55457;52.002;5.464;2023-04-02T12:35:44;102236.97;;;20.63;39.32
55187;BME280;55457;52.002;5.464;2023-04-02T12:38:26;102234.03;;;20.64;39.59
55187;BME280;55457;52.002;5.464;2023-04-02T12:41:05;102237.34;;;20.66;39.33
55187;BME280;55457;52.002;5.464;2023-04-02T12:43:42;102243.41;;;20.68;39.46
55187;BME280;55457;52.002;5.464;2023-04-02T12:46:07;102240.69;;;20.68;39.51
55187;BME280;55457;52.002;5.464;2023-04-02T12:48:33;102241.09;;;20.72;39.57
55187;BME280;55457;52.002;5.464;2023-04-02T12:50:59;102254.63;;;20.72;39.43
55187;BME280;55457;52.002;5.464;2023-04-02T12:53:33;102253.59;;;20.73;39.51
55187;BME280;55457;52.002;5.464;2023-04-02T12:55:58;102257.97;;;20.74;39.67
55187;BME280;55457;52.002;5.464;2023-04-02T12:58:39;102253.16;;;20.76;39.59
55187;BME280;55457;52.002;5.464;2023-04-02T13:01:12;102261.06;;;20.77;39.61
55187;BME280;55457;52.002;5.464;2023-04-02T13:03:38;102253.81;;;20.78;39.19
55187;BME280;55457;52.002;5.464;2023-04-02T13:06:10;102259.84;;;20.80;39.53
55187;BME280;55457;52.002;5.464;2023-04-02T13:08:42;102257.72;;;20.82;39.43
55187;BME280;55457;52.002;5.464;2023-04-02T13:11:07;102254.00;;;20.83;39.55
55187;BME280;55457;52.002;5.464;2023-04-02T13:13:33;102251.91;;;20.85;39.65
55187;BME280;55457;52.002;5.464;2023-04-02T13:16:04;102260.88;;;20.85;39.00
55187;BME280;55457;52.002;5.464;2023-04-02T13:18:30;102266.06;;;20.87;39.15
55187;BME280;55457;52.002;5.464;2023-04-02T13:20:59;102268.56;;;20.89;39.50
55187;BME280;55457;52.002;5.464;2023-04-02T13:25:52;102264.59;;;20.91;39.38
55187;BME280;55457;52.002;5.464;2023-04-02T13:28:18;102269.78;;;20.93;39.69
55187;BME280;55457;52.002;5.464;2023-04-02T13:30:44;102263.13;;;20.95;39.58
55187;BME280;55457;52.002;5.464;2023-04-02T13:33:10;102264.78;;;20.96;39.52
55187;BME280;55457;52.002;5.464;2023-04-02T13:35:36;102259.38;;;20.96;39.67
55187;BME280;55457;52.002;5.464;2023-04-02T13:38:01;102256.44;;;20.98;39.46
55187;BME280;55457;52.002;5.464;2023-04-02T13:40:28;102270.00;;;20.98;39.57
55187;BME280;55457;52.002;5.464;2023-04-02T13:42:53;102274.56;;;20.97;39.71
55187;BME280;55457;52.002;5.464;2023-04-02T13:47:46;102279.81;;;20.99;39.83
55187;BME280;55457;52.002;5.464;2023-04-02T13:50:16;102273.34;;;21.00;39.67
55187;BME280;55457;52.002;5.464;2023-04-02T13:52:41;102266.03;;;21.00;39.72
55187;BME280;55457;52.002;5.464;2023-04-02T13:55:07;102276.03;;;21.00;39.88
55187;BME280;55457;52.002;5.464;2023-04-02T13:57:34;102283.94;;;21.01;39.87
55187;BME280;55457;52.002;5.464;2023-04-02T13:59:59;102283.94;;;21.01;39.82
55187;BME280;55457;52.002;5.464;2023-04-02T14:02:24;102292.91;;;21.02;39.84
55187;BME280;55457;52.002;5.464;2023-04-02T14:04:51;102292.69;;;21.03;40.04
55187;BME280;55457;52.002;5.464;2023-04-02T14:35:43;102311.66;;;21.03;39.69
55187;BME280;55457;52.002;5.464;2023-04-02T14:38:28;102309.81;;;21.04;39.88
55187;BME280;55457;52.002;5.464;2023-04-02T14:40:58;102317.09;;;21.03;39.88
55187;BME280;55457;52.002;5.464;2023-04-02T14:50:48;102322.50;;;21.03;38.45
55187;BME280;55457;52.002;5.464;2023-04-02T14:53:17;102324.38;;;21.03;39.83
55187;BME280;55457;52.002;5.464;2023-04-02T14:55:45;102327.09;;;21.03;40.07
55187;BME280;55457;52.002;5.464;2023-04-02T14:58:16;102333.34;;;21.03;39.95
55187;BME280;55457;52.002;5.464;2023-04-02T15:00:54;102338.78;;;21.03;40.23
55187;BME280;55457;52.002;5.464;2023-04-02T15:03:22;102343.19;;;21.04;40.48
55187;BME280;55457;52.002;5.464;2023-04-02T15:05:57;102346.06;;;21.03;40.14
55187;BME280;55457;52.002;5.464;2023-04-02T15:14:11;102345.25;;;21.02;40.04
55187;BME280;55457;52.002;5.464;2023-04-02T15:16:18;102347.94;;;21.02;40.23
55187;BME280;55457;52.002;5.464;2023-04-02T15:18:44;102344.41;;;21.02;40.31
55187;BME280;55457;52.002;5.464;2023-04-02T15:21:16;102356.09;;;21.02;40.42
55187;BME280;55457;52.002;5.464;2023-04-02T15:31:29;102358.19;;;21.00;40.38
55187;BME280;55457;52.002;5.464;2023-04-02T15:39:18;102350.06;;;21.00;40.56
55187;BME280;55457;52.002;5.464;2023-04-02T15:44:18;102344.84;;;21.05;40.29
55187;BME280;55457;52.002;5.464;2023-04-02T15:47:05;102347.75;;;21.10;40.21
55187;BME280;55457;52.002;5.464;2023-04-02T15:52:04;102366.91;;;21.16;40.46
55187;BME280;55457;52.002;5.464;2023-04-02T16:04:55;102366.66;;;21.24;40.37
55187;BME280;55457;52.002;5.464;2023-04-02T16:10:03;102384.63;;;21.25;40.29
55187;BME280;55457;52.002;5.464;2023-04-02T16:12:30;102386.47;;;21.24;40.71
55187;BME280;55457;52.002;5.464;2023-04-02T16:14:58;102389.00;;;21.26;40.65
55187;BME280;55457;52.002;5.464;2023-04-02T16:17:31;102386.28;;;21.26;40.49
55187;BME280;55457;52.002;5.464;2023-04-02T16:20:18;102383.78;;;21.24;40.37
55187;BME280;55457;52.002;5.464;2023-04-02T16:22:47;102399.84;;;21.26;40.58
55187;BME280;55457;52.002;5.464;2023-04-02T16:25:16;102396.50;;;21.24;40.71
55187;BME280;55457;52.002;5.464;2023-04-02T16:27:50;102392.97;;;21.23;40.58
55187;BME280;55457;52.002;5.464;2023-04-02T16:45:35;102414.44;;;21.18;40.89
55187;BME280;55457;52.002;5.464;2023-04-02T16:53:03;102423.03;;;21.15;40.79
55187;BME280;55457;52.002;5.464;2023-04-02T17:00:43;102433.66;;;21.10;41.16
55187;BME280;55457;52.002;5.464;2023-04-02T17:06:16;102447.41;;;21.08;41.07
55187;BME280;55457;52.002;5.464;2023-04-02T17:11:31;102452.44;;;21.05;41.09